Time;durP1;ratioP1;P1;durP2;ratioP2;P2;SDS_P1;SDS_P2;PMS_P1;PMS_P2;Temp;Humidity;BMP_temperature;BMP_pressure;BME280_temperature;BME280_humidity;BME280_pressure;Samples;Min_cycle;Max_cycle;Signal;HPM_P1;HPM_P2
2021/12/24 00:02:08;;;;;;;25.27;17.53;;;;;;;;;;5074327;28;20305;-74
2021/12/24 00:04:34;;;;;;;25.30;17.67;;;;;;;;;;5073944;28;20248;-74
2021/12/24 00:07:01;;;;;;;24.73;17.93;;;;;;;;;;5040556;28;20251;-73
2021/12/24 00:09:32;;;;;;;24.03;17.10;;;;;;;;;;5065892;28;20698;-73
2021/12/24 00:12:03;;;;;;;18.57;14.13;;;;;;;;;;5075903;28;20222;-74
2021/12/24 00:14:32;;;;;;;23.17;16.27;;;;;;;;;;5072649;28;20277;-74
2021/12/24 00:17:04;;;;;;;19.13;14.30;;;;;;;;;;5057078;28;20230;-74
2021/12/24 00:20:05;;;;;;;19.67;14.10;;;;;;;;;;5028220;28;20764;-74
2021/12/24 00:36:34;;;;;;;15.93;12.47;;;;;;;;;;5044733;28;20226;-74
2021/12/24 00:38:59;;;;;;;14.90;11.00;;;;;;;;;;5039786;28;20231;-74
2021/12/24 00:41:27;;;;;;;16.87;12.33;;;;;;;;;;5072014;28;20272;-76
2021/12/24 00:43:55;;;;;;;16.03;12.17;;;;;;;;;;5039338;28;20226;-74
2021/12/24 00:46:21;;;;;;;14.07;10.67;;;;;;;;;;5072448;28;20267;-74
2021/12/24 00:48:51;;;;;;;15.17;11.70;;;;;;;;;;5073289;28;20620;-74
2021/12/24 00:51:53;;;;;;;13.23;10.83;;;;;;;;;;5080345;28;20222;-75
2021/12/24 00:57:03;;;;;;;14.97;11.03;;;;;;;;;;5058307;28;20218;-73
2021/12/24 00:59:29;;;;;;;14.97;11.87;;;;;;;;;;5037736;28;20223;-74
2021/12/24 01:01:56;;;;;;;14.57;11.60;;;;;;;;;;5055054;28;20308;-73
2021/12/24 01:04:25;;;;;;;14.27;11.33;;;;;;;;;;5055339;28;20222;-73
2021/12/24 01:06:55;;;;;;;13.57;10.30;;;;;;;;;;5040638;28;20226;-73
2021/12/24 01:09:20;;;;;;;14.43;10.53;;;;;;;;;;5035800;28;20249;-74
2021/12/24 01:11:46;;;;;;;10.97;9.70;;;;;;;;;;5058033;28;20215;-74
2021/12/24 01:14:18;;;;;;;13.60;10.47;;;;;;;;;;5072545;28;20265;-74
2021/12/24 01:17:00;;;;;;;10.77;8.47;;;;;;;;;;5071729;28;20226;-74
2021/12/24 01:19:26;;;;;;;10.53;8.10;;;;;;;;;;5046558;28;20224;-74
2021/12/24 01:24:58;;;;;;;0.10;0.10;;;;;;;;;;5058801;28;20225;-74
2021/12/24 01:28:32;;;;;;;0.10;0.10;;;;;;;;;;5080002;28;20281;-74
2021/12/24 01:38:51;;;;;;;0.10;0.10;;;;;;;;;;5059482;28;20211;-74
2021/12/24 01:42:40;;;;;;;0.10;0.10;;;;;;;;;;5057556;28;20602;-73
2021/12/24 01:44:09;;;;;;;0.10;0.10;;;;;;;;;;5071267;28;20226;-73
2021/12/24 01:46:37;;;;;;;0.10;0.10;;;;;;;;;;5039835;28;20222;-74
2021/12/24 01:49:03;;;;;;;0.27;0.27;;;;;;;;;;5037687;28;20217;-75
2021/12/24 01:51:29;;;;;;;1.47;0.43;;;;;;;;;;5062331;28;20214;-75
2021/12/24 01:53:56;;;;;;;0.50;0.50;;;;;;;;;;5039778;28;20227;-74
2021/12/24 01:56:21;;;;;;;0.10;0.10;;;;;;;;;;5054089;28;20883;-75
2021/12/24 01:58:52;;;;;;;0.10;0.10;;;;;;;;;;5038228;28;20222;-75
2021/12/24 02:01:27;;;;;;;0.10;0.10;;;;;;;;;;5054670;28;20786;-74
2021/12/24 02:03:55;;;;;;;0.10;0.10;;;;;;;;;;5052215;28;20303;-74
2021/12/24 02:06:21;;;;;;;0.10;0.10;;;;;;;;;;5034088;28;20599;-74
2021/12/24 02:08:46;;;;;;;0.20;0.20;;;;;;;;;;5054418;28;20272;-75
2021/12/24 02:11:12;;;;;;;0.50;0.50;;;;;;;;;;5037160;28;20288;-74
2021/12/24 02:13:39;;;;;;;0.10;0.10;;;;;;;;;;5038964;28;20223;-74
2021/12/24 02:16:22;;;;;;;0.10;0.10;;;;;;;;;;5054139;28;20214;-74
2021/12/24 02:29:52;;;;;;;0.10;0.10;;;;;;;;;;5056687;28;20222;-74
2021/12/24 02:32:20;;;;;;;0.10;0.10;;;;;;;;;;5053830;28;20215;-74
2021/12/24 02:34:46;;;;;;;0.10;0.10;;;;;;;;;;5070951;28;20301;-73
2021/12/24 02:37:14;;;;;;;0.10;0.10;;;;;;;;;;5053605;28;20286;-73
2021/12/24 02:39:40;;;;;;;0.60;0.60;;;;;;;;;;5038256;28;20231;-74
2021/12/24 02:42:11;;;;;;;0.10;0.10;;;;;;;;;;5069667;28;20230;-73
2021/12/24 02:44:37;;;;;;;0.33;0.33;;;;;;;;;;5070211;28;20845;-74
2021/12/24 02:47:24;;;;;;;0.10;0.10;;;;;;;;;;5068385;28;20241;-74
2021/12/24 02:55:05;;;;;;;0.47;0.47;;;;;;;;;;5062056;28;21086;-74
2021/12/24 02:57:33;;;;;;;0.20;0.20;;;;;;;;;;5049208;28;20221;-74
2021/12/24 03:00:06;;;;;;;0.10;0.10;;;;;;;;;;5057996;28;20230;-73
2021/12/24 03:02:39;;;;;;;0.20;0.20;;;;;;;;;;5021397;28;20695;-73
2021/12/24 03:05:08;;;;;;;0.47;0.47;;;;;;;;;;5053552;28;20226;-73
2021/12/24 03:07:35;;;;;;;0.20;0.20;;;;;;;;;;5037391;28;20683;-73
2021/12/24 03:10:04;;;;;;;0.63;0.63;;;;;;;;;;5054042;28;20279;-73
2021/12/24 03:12:32;;;;;;;0.10;0.10;;;;;;;;;;5036225;28;20218;-73
2021/12/24 03:14:58;;;;;;;0.17;0.17;;;;;;;;;;5036968;28;20599;-73
2021/12/24 03:17:25;;;;;;;0.10;0.10;;;;;;;;;;5052695;28;20227;-73
2021/12/24 03:20:01;;;;;;;0.00;0.00;;;;;;;;;;5020883;28;20257;-75
2021/12/24 03:25:12;;;;;;;0.40;0.40;;;;;;;;;;5067642;28;20765;-73
2021/12/24 03:27:40;;;;;;;1.13;0.37;;;;;;;;;;5029254;28;20210;-74
2021/12/24 03:30:12;;;;;;;0.40;0.23;;;;;;;;;;5038680;28;20218;-73
2021/12/24 03:32:39;;;;;;;0.10;0.10;;;;;;;;;;5020755;28;20222;-73
2021/12/24 03:35:08;;;;;;;0.10;0.10;;;;;;;;;;5053649;28;20252;-74
2021/12/24 03:37:33;;;;;;;0.20;0.20;;;;;;;;;;5036679;28;20287;-73
2021/12/24 03:40:05;;;;;;;0.10;0.10;;;;;;;;;;5069217;28;20767;-73
2021/12/24 03:42:31;;;;;;;0.10;0.10;;;;;;;;;;5035980;28;20229;-74
2021/12/24 03:45:09;;;;;;;0.10;0.10;;;;;;;;;;5036524;28;20288;-73
2021/12/24 03:47:47;;;;;;;0.10;0.10;;;;;;;;;;5074933;28;20214;-73
2021/12/24 03:50:14;;;;;;;3.73;1.37;;;;;;;;;;5078081;28;20214;-73
2021/12/24 03:55:25;;;;;;;0.30;0.30;;;;;;;;;;5059568;28;20297;-73
2021/12/24 03:57:53;;;;;;;0.10;0.10;;;;;;;;;;5048501;28;20349;-72
2021/12/24 04:00:40;;;;;;;1.37;0.60;;;;;;;;;;5054977;28;20234;-75
2021/12/24 04:03:31;;;;;;;0.10;0.10;;;;;;;;;;5057368;28;20248;-73
2021/12/24 04:06:18;;;;;;;0.20;0.20;;;;;;;;;;5055252;28;20603;-73
2021/12/24 04:09:04;;;;;;;0.10;0.10;;;;;;;;;;5042227;28;20233;-73
2021/12/24 04:11:43;;;;;;;0.10;0.10;;;;;;;;;;5039692;28;20592;-74
2021/12/24 04:14:14;;;;;;;0.10;0.10;;;;;;;;;;5035495;28;20229;-73
2021/12/24 04:16:41;;;;;;;0.20;0.20;;;;;;;;;;5053047;28;20311;-73
2021/12/24 04:19:34;;;;;;;0.10;0.10;;;;;;;;;;5052482;28;20708;-73
2021/12/24 04:24:54;;;;;;;0.10;0.10;;;;;;;;;;5053764;28;20881;-73
2021/12/24 04:27:24;;;;;;;0.10;0.10;;;;;;;;;;5037575;28;20226;-74
2021/12/24 04:30:01;;;;;;;0.10;0.10;;;;;;;;;;5037555;28;20218;-75
2021/12/24 04:32:50;;;;;;;0.23;0.23;;;;;;;;;;5076786;28;20219;-74
2021/12/24 04:51:33;;;;;;;0.10;0.10;;;;;;;;;;5054925;28;20257;-73
2021/12/24 05:05:24;;;;;;;0.10;0.10;;;;;;;;;;5044214;28;20219;-73
2021/12/24 05:10:38;;;;;;;0.10;0.10;;;;;;;;;;5054461;28;20242;-74
2021/12/24 05:13:08;;;;;;;0.10;0.10;;;;;;;;;;5038570;28;20257;-73
2021/12/24 05:16:04;;;;;;;0.10;0.10;;;;;;;;;;5044751;28;20222;-73
2021/12/24 05:21:46;;;;;;;0.10;0.10;;;;;;;;;;5010453;28;20861;-73
2021/12/24 05:24:16;;;;;;;0.30;0.30;;;;;;;;;;5051832;28;20725;-74
2021/12/24 05:26:48;;;;;;;0.10;0.10;;;;;;;;;;5029154;28;20219;-73
2021/12/24 05:29:16;;;;;;;0.00;0.00;;;;;;;;;;5055329;28;20623;-73
2021/12/24 05:31:49;;;;;;;0.10;0.10;;;;;;;;;;5055840;28;20222;-72
2021/12/24 05:34:17;;;;;;;0.20;0.20;;;;;;;;;;5022834;28;20250;-74
2021/12/24 05:36:43;;;;;;;0.10;0.10;;;;;;;;;;5039285;28;20223;-73
2021/12/24 05:39:11;;;;;;;0.00;0.00;;;;;;;;;;5054881;28;20218;-74
2021/12/24 05:41:39;;;;;;;0.60;0.60;;;;;;;;;;5054893;28;20703;-74
2021/12/24 05:44:08;;;;;;;0.10;0.10;;;;;;;;;;5054433;28;20275;-73
2021/12/24 05:46:34;;;;;;;0.20;0.20;;;;;;;;;;5055364;28;20223;-74
2021/12/24 05:49:25;;;;;;;0.40;0.40;;;;;;;;;;5065952;28;20290;-73
2021/12/24 05:52:13;;;;;;;0.10;0.10;;;;;;;;;;5079844;28;20226;-74
2021/12/24 05:54:56;;;;;;;0.10;0.10;;;;;;;;;;5056248;28;20226;-73
2021/12/24 05:57:22;;;;;;;0.10;0.10;;;;;;;;;;5055833;28;22448;-73
2021/12/24 05:59:55;;;;;;;0.10;0.10;;;;;;;;;;5038782;28;20223;-74
2021/12/24 06:02:21;;;;;;;0.10;0.10;;;;;;;;;;5054153;28;20215;-74
2021/12/24 06:04:47;;;;;;;0.00;0.00;;;;;;;;;;5038434;28;20865;-74
2021/12/24 06:07:12;;;;;;;0.10;0.10;;;;;;;;;;5037349;28;20233;-73
2021/12/24 06:09:38;;;;;;;0.87;0.20;;;;;;;;;;5054846;28;20242;-74
2021/12/24 06:12:04;;;;;;;0.10;0.10;;;;;;;;;;5062581;28;20260;-74
2021/12/24 06:14:30;;;;;;;0.10;0.10;;;;;;;;;;5071173;28;20597;-74
2021/12/24 06:17:10;;;;;;;0.53;0.53;;;;;;;;;;5061127;28;20218;-74
2021/12/24 06:19:40;;;;;;;0.10;0.10;;;;;;;;;;5065463;28;20226;-74
2021/12/24 06:22:08;;;;;;;0.00;0.00;;;;;;;;;;5083428;28;20226;-74
2021/12/24 06:24:34;;;;;;;0.10;0.10;;;;;;;;;;5072107;28;20210;-73
2021/12/24 06:27:01;;;;;;;0.00;0.00;;;;;;;;;;5071440;28;20723;-74
2021/12/24 06:29:29;;;;;;;0.00;0.00;;;;;;;;;;5036930;28;20713;-74
2021/12/24 06:31:58;;;;;;;0.00;0.00;;;;;;;;;;5037619;28;20227;-73
2021/12/24 06:34:25;;;;;;;0.07;0.07;;;;;;;;;;5063292;28;20302;-73
2021/12/24 06:36:58;;;;;;;0.10;0.10;;;;;;;;;;5352058;22;20338;-72
2021/12/24 06:39:27;;;;;;;0.10;0.10;;;;;;;;;;4992474;28;20315;-74
2021/12/24 06:41:53;;;;;;;0.10;0.10;;;;;;;;;;4977469;28;20229;-74
2021/12/24 06:44:22;;;;;;;0.10;0.10;;;;;;;;;;4998224;28;20227;-74
2021/12/24 06:46:47;;;;;;;0.10;0.10;;;;;;;;;;4974527;28;20719;-72
2021/12/24 06:49:13;;;;;;;0.10;0.10;;;;;;;;;;4955125;28;20217;-75
2021/12/24 06:51:43;;;;;;;0.10;0.10;;;;;;;;;;4974107;28;20703;-75
2021/12/24 06:54:12;;;;;;;0.10;0.10;;;;;;;;;;4960420;28;20616;-73
2021/12/24 06:56:41;;;;;;;0.17;0.17;;;;;;;;;;4988889;28;20703;-73
2021/12/24 06:59:06;;;;;;;0.10;0.10;;;;;;;;;;4980018;28;20214;-73
2021/12/24 07:01:32;;;;;;;0.70;0.70;;;;;;;;;;4955830;28;20227;-75
2021/12/24 07:03:58;;;;;;;0.00;0.00;;;;;;;;;;4991181;28;20214;-73
2021/12/24 07:06:28;;;;;;;0.10;0.10;;;;;;;;;;4958157;28;20221;-74
2021/12/24 07:08:53;;;;;;;0.33;0.33;;;;;;;;;;4945214;28;20248;-73
2021/12/24 07:11:19;;;;;;;0.10;0.10;;;;;;;;;;4955050;28;20175;-72
2021/12/24 07:13:45;;;;;;;0.20;0.20;;;;;;;;;;4951862;28;20624;-74
2021/12/24 07:16:15;;;;;;;0.00;0.00;;;;;;;;;;4969996;28;20209;-73
2021/12/24 07:18:41;;;;;;;0.00;0.00;;;;;;;;;;5011963;28;20193;-74
2021/12/24 07:21:07;;;;;;;0.20;0.20;;;;;;;;;;4989016;28;20659;-75
2021/12/24 07:23:32;;;;;;;0.10;0.10;;;;;;;;;;4988732;28;20236;-75
2021/12/24 07:26:03;;;;;;;0.10;0.10;;;;;;;;;;4991155;28;20229;-73
2021/12/24 07:28:28;;;;;;;0.10;0.10;;;;;;;;;;4957112;28;20766;-74
2021/12/24 07:30:59;;;;;;;0.10;0.10;;;;;;;;;;5002934;28;20225;-74
2021/12/24 07:33:24;;;;;;;0.10;0.10;;;;;;;;;;4984582;28;20222;-74
2021/12/24 07:35:50;;;;;;;0.10;0.10;;;;;;;;;;4990027;28;20255;-74
2021/12/24 07:38:15;;;;;;;0.00;0.00;;;;;;;;;;4972751;28;20220;-75
2021/12/24 07:40:42;;;;;;;0.10;0.10;;;;;;;;;;4990159;28;20312;-74
2021/12/24 07:43:09;;;;;;;0.03;0.03;;;;;;;;;;4959201;28;20583;-73
2021/12/24 07:45:39;;;;;;;0.10;0.10;;;;;;;;;;4975873;28;20225;-72
2021/12/24 07:48:14;;;;;;;0.00;0.00;;;;;;;;;;4952767;28;20218;-72
2021/12/24 07:53:13;;;;;;;0.00;0.00;;;;;;;;;;4978143;28;20232;-73
2021/12/24 07:55:39;;;;;;;0.10;0.10;;;;;;;;;;4939859;28;20663;-73
2021/12/24 07:58:09;;;;;;;0.00;0.00;;;;;;;;;;4939367;28;20222;-73
2021/12/24 08:00:38;;;;;;;0.00;0.00;;;;;;;;;;4965356;28;20379;-73
2021/12/24 08:03:04;;;;;;;0.03;0.03;;;;;;;;;;4992810;28;20278;-72
2021/12/24 08:05:33;;;;;;;0.10;0.10;;;;;;;;;;5002556;28;20220;-74
2021/12/24 08:08:01;;;;;;;0.00;0.00;;;;;;;;;;4986637;28;20224;-74
2021/12/24 08:10:33;;;;;;;0.00;0.00;;;;;;;;;;5004196;28;20223;-73
2021/12/24 08:13:02;;;;;;;0.07;0.07;;;;;;;;;;4993055;28;20224;-73
2021/12/24 08:15:30;;;;;;;0.00;0.00;;;;;;;;;;4974145;28;20225;-75
2021/12/24 08:18:02;;;;;;;0.00;0.00;;;;;;;;;;4997596;28;20636;-71
2021/12/24 08:20:32;;;;;;;0.10;0.10;;;;;;;;;;5005810;28;20387;-74
2021/12/24 08:23:00;;;;;;;0.10;0.10;;;;;;;;;;4993464;28;20716;-75
2021/12/24 08:25:28;;;;;;;0.00;0.00;;;;;;;;;;4974806;28;20218;-73
2021/12/24 08:27:53;;;;;;;0.10;0.10;;;;;;;;;;4974696;28;20280;-73
2021/12/24 08:30:24;;;;;;;0.10;0.10;;;;;;;;;;5006417;28;20222;-73
2021/12/24 08:32:52;;;;;;;0.17;0.17;;;;;;;;;;5005377;28;20644;-73
2021/12/24 08:35:20;;;;;;;0.10;0.10;;;;;;;;;;4982673;28;20292;-74
2021/12/24 08:37:46;;;;;;;0.00;0.00;;;;;;;;;;5005157;28;20224;-73
2021/12/24 08:40:14;;;;;;;0.10;0.10;;;;;;;;;;4995692;28;20221;-73
2021/12/24 08:42:39;;;;;;;0.27;0.23;;;;;;;;;;5029336;28;20291;-74
2021/12/24 08:45:06;;;;;;;0.73;0.30;;;;;;;;;;5009652;28;20225;-73
2021/12/24 08:47:34;;;;;;;0.20;0.20;;;;;;;;;;5009611;28;20233;-74
2021/12/24 08:49:59;;;;;;;0.10;0.10;;;;;;;;;;4979204;28;20707;-74
2021/12/24 08:52:25;;;;;;;0.10;0.10;;;;;;;;;;4971033;28;20228;-73
2021/12/24 08:54:53;;;;;;;0.07;0.07;;;;;;;;;;4993088;28;20229;-73
2021/12/24 08:57:18;;;;;;;0.20;0.20;;;;;;;;;;4957938;28;20641;-74
2021/12/24 08:59:44;;;;;;;0.00;0.00;;;;;;;;;;4976606;28;20317;-74
2021/12/24 09:02:10;;;;;;;0.20;0.20;;;;;;;;;;4975042;28;20230;-72
2021/12/24 09:04:37;;;;;;;0.10;0.10;;;;;;;;;;4992407;28;20289;-73
2021/12/24 09:07:06;;;;;;;0.10;0.10;;;;;;;;;;4991288;28;20241;-72
2021/12/24 09:09:34;;;;;;;0.10;0.10;;;;;;;;;;4972360;28;20232;-72
2021/12/24 09:12:03;;;;;;;0.40;0.40;;;;;;;;;;5000487;28;20300;-74
2021/12/24 09:14:28;;;;;;;0.10;0.10;;;;;;;;;;4989138;28;20365;-73
2021/12/24 09:17:00;;;;;;;0.10;0.10;;;;;;;;;;4999658;28;20226;-72
2021/12/24 09:19:29;;;;;;;0.10;0.10;;;;;;;;;;4988912;28;20234;-73
2021/12/24 09:21:56;;;;;;;0.23;0.23;;;;;;;;;;4994737;28;20256;-74
2021/12/24 09:24:25;;;;;;;0.10;0.10;;;;;;;;;;4973580;28;20226;-74
2021/12/24 09:26:56;;;;;;;0.10;0.10;;;;;;;;;;4988397;28;20607;-72
2021/12/24 09:29:24;;;;;;;0.27;0.27;;;;;;;;;;4973954;28;20205;-72
2021/12/24 09:31:49;;;;;;;0.10;0.10;;;;;;;;;;4988516;28;20237;-72
2021/12/24 09:34:17;;;;;;;0.67;0.67;;;;;;;;;;4969530;28;20214;-72
2021/12/24 09:36:43;;;;;;;0.10;0.10;;;;;;;;;;4990254;28;20230;-75
2021/12/24 09:39:12;;;;;;;1.43;1.27;;;;;;;;;;4971945;28;20222;-73
2021/12/24 09:41:40;;;;;;;0.10;0.10;;;;;;;;;;4992137;28;20222;-74
2021/12/24 09:44:05;;;;;;;0.00;0.00;;;;;;;;;;4972425;28;20218;-73
2021/12/24 09:46:33;;;;;;;0.30;0.30;;;;;;;;;;5007147;28;20694;-74
2021/12/24 09:48:59;;;;;;;0.10;0.10;;;;;;;;;;4972660;28;20233;-73
2021/12/24 09:51:27;;;;;;;0.33;0.33;;;;;;;;;;4990004;28;20217;-73
2021/12/24 09:53:55;;;;;;;0.10;0.10;;;;;;;;;;4975921;28;20248;-73
2021/12/24 09:56:23;;;;;;;0.10;0.10;;;;;;;;;;4959996;28;20225;-73
2021/12/24 09:58:54;;;;;;;0.10;0.10;;;;;;;;;;4975328;28;20229;-73
2021/12/24 10:01:40;;;;;;;0.10;0.10;;;;;;;;;;4990515;28;20225;-72
2021/12/24 10:04:08;;;;;;;1.00;1.00;;;;;;;;;;4972167;28;20233;-74
2021/12/24 10:06:35;;;;;;;0.50;0.50;;;;;;;;;;4971858;28;20269;-74
2021/12/24 10:09:12;;;;;;;0.10;0.10;;;;;;;;;;4990541;28;20218;-73
2021/12/24 10:11:54;;;;;;;0.27;0.27;;;;;;;;;;4975042;28;20221;-74
2021/12/24 10:14:23;;;;;;;0.20;0.20;;;;;;;;;;4972738;28;22450;-72
2021/12/24 10:16:54;;;;;;;0.10;0.10;;;;;;;;;;4988879;28;20225;-72
2021/12/24 10:19:22;;;;;;;0.00;0.00;;;;;;;;;;4976060;28;20229;-72
2021/12/24 10:21:57;;;;;;;0.17;0.17;;;;;;;;;;4979595;28;20228;-73
2021/12/24 10:24:26;;;;;;;0.00;0.00;;;;;;;;;;4982449;28;20225;-73
2021/12/24 10:26:53;;;;;;;0.10;0.10;;;;;;;;;;4991579;28;20221;-71
2021/12/24 10:29:37;;;;;;;0.10;0.10;;;;;;;;;;5007788;28;20221;-73
2021/12/24 10:32:16;;;;;;;0.10;0.10;;;;;;;;;;4980252;28;20722;-73
2021/12/24 10:34:43;;;;;;;0.10;0.10;;;;;;;;;;4990238;28;20678;-71
2021/12/24 10:37:12;;;;;;;0.23;0.23;;;;;;;;;;4997346;28;20744;-73
2021/12/24 10:39:47;;;;;;;0.10;0.10;;;;;;;;;;4956156;28;20253;-72
2021/12/24 10:42:44;;;;;;;0.00;0.00;;;;;;;;;;4982106;28;20222;-73
2021/12/24 10:45:16;;;;;;;0.00;0.00;;;;;;;;;;5003048;28;20241;-73
2021/12/24 10:47:44;;;;;;;0.10;0.10;;;;;;;;;;4998968;28;20226;-72
2021/12/24 10:55:30;;;;;;;0.80;0.80;;;;;;;;;;4975631;28;20540;-73
2021/12/24 10:58:03;;;;;;;0.20;0.20;;;;;;;;;;4970775;28;20221;-72
2021/12/24 11:00:42;;;;;;;0.10;0.10;;;;;;;;;;4962083;28;20316;-72
2021/12/24 11:03:09;;;;;;;0.10;0.10;;;;;;;;;;4971270;28;20220;-70
2021/12/24 11:05:44;;;;;;;0.30;0.30;;;;;;;;;;4969085;28;20726;-73
2021/12/24 11:08:20;;;;;;;0.10;0.10;;;;;;;;;;5004496;28;20249;-72
2021/12/24 11:10:56;;;;;;;0.10;0.10;;;;;;;;;;4971663;28;20699;-73
2021/12/24 11:13:32;;;;;;;0.10;0.10;;;;;;;;;;4965812;28;20638;-72
2021/12/24 11:16:03;;;;;;;0.10;0.10;;;;;;;;;;4987637;28;20248;-73
2021/12/24 11:18:35;;;;;;;0.00;0.00;;;;;;;;;;4961203;28;20300;-74
2021/12/24 11:21:07;;;;;;;0.20;0.20;;;;;;;;;;4987626;28;20233;-73
2021/12/24 11:23:36;;;;;;;0.10;0.10;;;;;;;;;;5001708;28;20292;-73
2021/12/24 11:26:08;;;;;;;0.10;0.10;;;;;;;;;;4966221;28;20222;-73
2021/12/24 11:28:36;;;;;;;0.17;0.17;;;;;;;;;;4986380;28;20225;-72
2021/12/24 11:31:08;;;;;;;0.00;0.00;;;;;;;;;;4959886;28;20602;-72
2021/12/24 11:33:39;;;;;;;0.30;0.30;;;;;;;;;;4969897;28;20713;-71
2021/12/24 11:36:11;;;;;;;0.00;0.00;;;;;;;;;;4989420;28;20230;-70
2021/12/24 11:39:06;;;;;;;0.10;0.10;;;;;;;;;;4972436;28;20256;-73
2021/12/24 11:41:35;;;;;;;0.10;0.10;;;;;;;;;;4976186;28;20231;-75
2021/12/24 11:44:07;;;;;;;0.10;0.10;;;;;;;;;;4991388;28;20237;-74
2021/12/24 11:46:34;;;;;;;0.10;0.10;;;;;;;;;;4990172;28;20236;-73
2021/12/24 11:49:02;;;;;;;1.40;1.30;;;;;;;;;;4986640;28;20224;-74
2021/12/24 11:51:40;;;;;;;0.10;0.10;;;;;;;;;;4960852;28;20226;-74
2021/12/24 11:54:05;;;;;;;0.40;0.40;;;;;;;;;;4961611;28;20240;-74
2021/12/24 11:56:45;;;;;;;0.03;0.03;;;;;;;;;;4957669;28;20233;-73
2021/12/24 11:59:18;;;;;;;0.30;0.30;;;;;;;;;;4978683;28;20520;-73
2021/12/24 12:01:46;;;;;;;0.10;0.10;;;;;;;;;;4961890;28;20213;-73
2021/12/24 12:04:13;;;;;;;0.10;0.10;;;;;;;;;;5006873;28;20229;-72
2021/12/24 12:06:38;;;;;;;0.10;0.10;;;;;;;;;;4962868;28;20875;-73
2021/12/24 12:09:10;;;;;;;0.50;0.50;;;;;;;;;;4978041;28;20217;-74
2021/12/24 12:11:36;;;;;;;0.10;0.10;;;;;;;;;;4986386;28;20756;-74
2021/12/24 12:14:14;;;;;;;0.10;0.10;;;;;;;;;;5008693;28;20286;-73
2021/12/24 12:16:39;;;;;;;0.10;0.10;;;;;;;;;;5026596;28;20232;-73
2021/12/24 12:19:26;;;;;;;0.10;0.10;;;;;;;;;;5003268;28;20718;-74
2021/12/24 12:22:30;;;;;;;0.10;0.10;;;;;;;;;;5006536;28;20320;-74
2021/12/24 12:24:58;;;;;;;0.00;0.00;;;;;;;;;;4987929;28;20246;-74
2021/12/24 12:27:46;;;;;;;0.10;0.10;;;;;;;;;;4957454;28;20240;-73
2021/12/24 12:30:21;;;;;;;0.37;0.37;;;;;;;;;;4993960;28;20221;-75
2021/12/24 12:32:47;;;;;;;0.10;0.10;;;;;;;;;;4986519;28;20710;-73
2021/12/24 12:35:12;;;;;;;0.10;0.10;;;;;;;;;;4970008;28;20229;-73
2021/12/24 12:37:51;;;;;;;0.30;0.30;;;;;;;;;;4952978;28;20310;-72
2021/12/24 12:40:19;;;;;;;0.10;0.10;;;;;;;;;;4969469;28;20217;-72
2021/12/24 12:45:17;;;;;;;2.03;1.90;;;;;;;;;;5015272;28;20367;-74
2021/12/24 12:47:52;;;;;;;0.70;0.70;;;;;;;;;;4973663;28;20237;-74
2021/12/24 12:50:21;;;;;;;0.50;0.50;;;;;;;;;;4972996;28;20299;-74
2021/12/24 12:52:47;;;;;;;0.83;0.83;;;;;;;;;;4986621;28;20603;-73
2021/12/24 12:55:36;;;;;;;0.10;0.10;;;;;;;;;;5007594;28;20213;-74
2021/12/24 12:58:24;;;;;;;0.30;0.30;;;;;;;;;;4961727;28;20351;-74
2021/12/24 13:01:17;;;;;;;0.93;0.93;;;;;;;;;;4992695;28;20229;-73
2021/12/24 13:03:55;;;;;;;1.10;1.10;;;;;;;;;;4992069;28;20304;-76
2021/12/24 13:06:36;;;;;;;0.57;0.57;;;;;;;;;;4992438;28;20228;-73
2021/12/24 13:09:05;;;;;;;0.10;0.10;;;;;;;;;;4995211;28;20232;-74
2021/12/24 13:11:44;;;;;;;0.47;0.47;;;;;;;;;;4969078;28;20274;-77
2021/12/24 13:14:10;;;;;;;0.10;0.10;;;;;;;;;;4990989;28;20213;-74
2021/12/24 13:16:49;;;;;;;0.27;0.27;;;;;;;;;;4957548;28;20252;-73
2021/12/24 13:24:53;;;;;;;0.10;0.10;;;;;;;;;;4979472;28;20221;-74
2021/12/24 13:27:25;;;;;;;0.53;0.53;;;;;;;;;;4986416;28;20238;-74
2021/12/24 13:30:04;;;;;;;0.10;0.10;;;;;;;;;;4967004;28;20209;-71
2021/12/24 13:32:29;;;;;;;0.17;0.17;;;;;;;;;;4991181;28;20236;-72
2021/12/24 13:34:55;;;;;;;0.10;0.10;;;;;;;;;;4992683;28;20229;-74
2021/12/24 13:37:21;;;;;;;0.30;0.30;;;;;;;;;;4991017;28;20793;-74
2021/12/24 13:39:53;;;;;;;0.10;0.10;;;;;;;;;;4993467;28;20293;-73
2021/12/24 13:42:19;;;;;;;0.10;0.10;;;;;;;;;;4977777;28;20252;-73
2021/12/24 13:44:45;;;;;;;0.10;0.10;;;;;;;;;;4994988;28;20221;-74
2021/12/24 13:48:06;;;;;;;0.10;0.10;;;;;;;;;;4978656;28;20280;-74
2021/12/24 13:55:37;;;;;;;0.10;0.10;;;;;;;;;;4994151;28;20220;-74
2021/12/24 13:58:12;;;;;;;0.10;0.10;;;;;;;;;;4947159;28;20229;-74
2021/12/24 14:00:48;;;;;;;0.10;0.10;;;;;;;;;;4977032;28;20294;-74
2021/12/24 14:03:16;;;;;;;0.60;0.60;;;;;;;;;;4961582;28;20308;-74
2021/12/24 14:05:49;;;;;;;0.00;0.00;;;;;;;;;;4993345;28;20237;-74
2021/12/24 14:08:16;;;;;;;0.20;0.20;;;;;;;;;;4992248;28;20236;-75
2021/12/24 14:10:45;;;;;;;0.10;0.10;;;;;;;;;;4977012;28;20233;-75
2021/12/24 14:13:25;;;;;;;0.10;0.10;;;;;;;;;;4976158;28;21459;-73
2021/12/24 14:24:13;;;;;;;0.60;0.60;;;;;;;;;;4977265;28;20221;-75
2021/12/24 14:27:03;;;;;;;0.10;0.10;;;;;;;;;;4971122;28;20283;-74
2021/12/24 14:29:35;;;;;;;0.20;0.20;;;;;;;;;;4970931;28;20221;-73
2021/12/24 14:32:14;;;;;;;0.10;0.10;;;;;;;;;;4989310;28;20249;-74
2021/12/24 14:34:49;;;;;;;0.00;0.00;;;;;;;;;;4979628;28;20234;-74
2021/12/24 14:37:31;;;;;;;0.10;0.10;;;;;;;;;;4976582;28;20229;-73
2021/12/24 14:40:10;;;;;;;0.00;0.00;;;;;;;;;;4989152;28;20229;-76
2021/12/24 14:42:36;;;;;;;0.10;0.10;;;;;;;;;;4972220;28;20287;-74
2021/12/24 14:45:11;;;;;;;0.10;0.10;;;;;;;;;;4993302;28;20312;-75
2021/12/24 14:47:41;;;;;;;0.10;0.10;;;;;;;;;;4995535;28;20269;-73
2021/12/24 14:50:12;;;;;;;0.10;0.10;;;;;;;;;;4990509;28;20209;-74
2021/12/24 14:52:41;;;;;;;0.10;0.10;;;;;;;;;;4986798;28;20226;-73
2021/12/24 14:55:16;;;;;;;0.40;0.40;;;;;;;;;;4973311;28;20253;-76
2021/12/24 14:57:51;;;;;;;0.60;0.60;;;;;;;;;;4976750;28;20241;-73
2021/12/24 15:00:18;;;;;;;0.20;0.20;;;;;;;;;;4989602;28;20229;-75
2021/12/24 15:02:48;;;;;;;0.10;0.10;;;;;;;;;;4976536;28;20249;-75
2021/12/24 15:05:30;;;;;;;0.00;0.00;;;;;;;;;;4991001;28;20941;-75
2021/12/24 15:07:57;;;;;;;0.10;0.10;;;;;;;;;;5007530;28;20725;-75
2021/12/24 15:10:27;;;;;;;0.27;0.27;;;;;;;;;;4982301;28;20218;-78
2021/12/24 15:12:59;;;;;;;0.10;0.10;;;;;;;;;;4990167;28;20229;-75
2021/12/24 15:15:29;;;;;;;0.10;0.10;;;;;;;;;;4975289;28;20222;-73
2021/12/24 15:17:55;;;;;;;0.10;0.10;;;;;;;;;;4978263;28;20898;-74
2021/12/24 15:20:27;;;;;;;0.17;0.17;;;;;;;;;;4989754;28;20218;-73
2021/12/24 15:22:52;;;;;;;0.10;0.10;;;;;;;;;;4958357;28;20230;-74
2021/12/24 15:25:22;;;;;;;0.10;0.10;;;;;;;;;;4940014;28;20209;-74
2021/12/24 15:27:49;;;;;;;0.10;0.10;;;;;;;;;;4984805;28;20255;-74
2021/12/24 15:30:15;;;;;;;0.10;0.10;;;;;;;;;;4974646;28;20301;-74
2021/12/24 15:32:40;;;;;;;0.10;0.10;;;;;;;;;;4986717;28;20312;-73
2021/12/24 15:35:06;;;;;;;1.27;1.27;;;;;;;;;;4956648;28;20230;-76
2021/12/24 15:37:34;;;;;;;0.10;0.10;;;;;;;;;;4971017;28;20317;-75
2021/12/24 15:40:04;;;;;;;0.10;0.10;;;;;;;;;;4991030;28;20225;-74
2021/12/24 15:42:30;;;;;;;0.10;0.10;;;;;;;;;;4976769;28;20300;-74
2021/12/24 15:44:58;;;;;;;0.50;0.50;;;;;;;;;;4988907;28;20718;-75
2021/12/24 15:47:24;;;;;;;0.63;0.63;;;;;;;;;;4956302;28;20861;-79
2021/12/24 15:49:51;;;;;;;0.10;0.10;;;;;;;;;;4992142;28;21203;-75
2021/12/24 15:52:19;;;;;;;0.10;0.10;;;;;;;;;;4962564;28;20217;-79
2021/12/24 15:54:44;;;;;;;0.30;0.30;;;;;;;;;;4990187;28;20333;-75
2021/12/24 15:57:12;;;;;;;0.10;0.10;;;;;;;;;;4975101;28;20271;-72
2021/12/24 15:59:40;;;;;;;0.20;0.20;;;;;;;;;;4983195;28;20236;-74
2021/12/24 16:02:07;;;;;;;0.30;0.30;;;;;;;;;;4987103;28;20762;-74
2021/12/24 16:04:40;;;;;;;0.10;0.10;;;;;;;;;;5002383;28;20245;-74
2021/12/24 16:07:08;;;;;;;0.10;0.10;;;;;;;;;;4972968;28;20544;-73
2021/12/24 16:09:36;;;;;;;0.10;0.10;;;;;;;;;;5000199;28;20303;-74
2021/12/24 16:12:02;;;;;;;0.30;0.30;;;;;;;;;;4973045;28;20240;-72
2021/12/24 16:14:27;;;;;;;0.10;0.10;;;;;;;;;;4974365;28;20308;-79
2021/12/24 16:17:00;;;;;;;0.10;0.10;;;;;;;;;;4989593;28;20241;-75
2021/12/24 16:19:26;;;;;;;0.10;0.10;;;;;;;;;;4979929;28;20214;-76
2021/12/24 16:21:53;;;;;;;0.10;0.10;;;;;;;;;;4974085;28;20237;-74
2021/12/24 16:24:22;;;;;;;0.10;0.10;;;;;;;;;;5006839;28;20227;-78
2021/12/24 16:26:50;;;;;;;0.10;0.10;;;;;;;;;;4973167;28;20309;-75
2021/12/24 16:29:19;;;;;;;0.83;0.83;;;;;;;;;;5007845;28;20704;-75
2021/12/24 16:31:48;;;;;;;0.57;0.57;;;;;;;;;;4980297;28;20233;-76
2021/12/24 16:34:19;;;;;;;0.40;0.40;;;;;;;;;;4993098;28;20707;-74
2021/12/24 16:36:49;;;;;;;0.10;0.10;;;;;;;;;;4977761;28;20283;-74
2021/12/24 16:39:17;;;;;;;0.20;0.20;;;;;;;;;;4976721;28;20255;-77
2021/12/24 16:41:46;;;;;;;0.10;0.10;;;;;;;;;;4991360;28;20235;-75
2021/12/24 16:44:16;;;;;;;0.20;0.20;;;;;;;;;;4996701;28;20217;-75
2021/12/24 16:46:42;;;;;;;0.10;0.10;;;;;;;;;;4977790;28;20768;-74
2021/12/24 16:49:07;;;;;;;0.10;0.10;;;;;;;;;;4956437;28;20406;-74
2021/12/24 16:51:35;;;;;;;0.10;0.10;;;;;;;;;;4960955;28;20217;-76
2021/12/24 16:54:01;;;;;;;0.10;0.10;;;;;;;;;;4992959;28;20718;-73
2021/12/24 16:56:27;;;;;;;1.30;1.20;;;;;;;;;;4996059;28;20637;-74
2021/12/24 16:58:55;;;;;;;0.10;0.10;;;;;;;;;;4971784;28;20229;-74